createdAt,value
2017-12-01T00:02:08.660Z,46.50
2017-12-01T00:04:36.861Z,49.50
2017-12-01T00:07:04.288Z,49.37
2017-12-01T00:09:32.488Z,47.80
2017-12-01T00:11:59.972Z,46.03
2017-12-01T00:14:27.416Z,47.57
2017-12-01T00:16:54.842Z,43.57
2017-12-01T00:19:23.056Z,41.53
2017-12-01T00:21:50.517Z,44.40
2017-12-01T00:24:17.969Z,38.77
2017-12-01T00:26:45.392Z,38.10
2017-12-01T00:29:12.884Z,41.17
2017-12-01T00:31:40.310Z,42.97
2017-12-01T00:34:07.740Z,36.40
2017-12-01T00:36:35.961Z,49.13
2017-12-01T00:39:03.370Z,38.90
2017-12-01T00:41:30.796Z,49.73
2017-12-01T00:43:58.336Z,45.23
2017-12-01T00:46:25.780Z,45.67
2017-12-01T00:48:53.265Z,51.40
2017-12-01T00:51:20.704Z,59.40
2017-12-01T00:53:48.125Z,58.70
2017-12-01T00:56:16.313Z,66.13
2017-12-01T00:58:43.756Z,81.00
2017-12-01T01:01:11.948Z,88.93
2017-12-01T01:03:39.368Z,72.30
2017-12-01T01:06:06.809Z,81.87
2017-12-01T01:08:34.254Z,82.47
2017-12-01T01:11:01.692Z,87.53
2017-12-01T01:13:29.167Z,97.17
2017-12-01T01:15:56.594Z,82.97
2017-12-01T01:18:24.020Z,95.27
2017-12-01T01:20:52.248Z,124.40
2017-12-01T01:23:19.704Z,127.53
2017-12-01T01:25:47.152Z,159.37
2017-12-01T01:28:14.573Z,147.17
2017-12-01T01:30:42.764Z,186.27
2017-12-01T01:33:10.244Z,94.63
2017-12-01T01:35:37.700Z,98.87
2017-12-01T01:38:05.137Z,126.73
2017-12-01T01:40:32.636Z,243.20
2017-12-01T01:43:00.067Z,216.77
2017-12-01T01:45:27.536Z,271.20
2017-12-01T01:47:54.965Z,174.77
2017-12-01T01:50:22.451Z,138.37
2017-12-01T01:52:49.905Z,151.67
2017-12-01T01:55:17.333Z,162.73
2017-12-01T01:57:44.765Z,133.17
2017-12-01T02:00:13.004Z,135.97
2017-12-01T02:02:40.448Z,99.23
2017-12-01T02:05:07.898Z,92.47
2017-12-01T02:07:35.329Z,137.40
2017-12-01T02:10:03.521Z,120.93
2017-12-01T02:12:30.960Z,131.87
2017-12-01T02:14:59.170Z,99.53
2017-12-01T02:17:26.630Z,111.73
2017-12-01T02:19:54.125Z,114.80
2017-12-01T02:22:21.649Z,108.43
2017-12-01T02:24:49.084Z,95.03
2017-12-01T02:27:16.529Z,116.47
2017-12-01T02:29:43.952Z,121.43
2017-12-01T02:32:11.393Z,109.27
2017-12-01T02:34:38.836Z,121.77
2017-12-01T02:37:06.286Z,122.60
2017-12-01T02:39:33.746Z,113.00
2017-12-01T02:42:01.204Z,126.07
2017-12-01T02:44:28.661Z,126.20
2017-12-01T02:46:56.118Z,138.40
2017-12-01T02:49:23.601Z,120.07
2017-12-01T02:51:51.045Z,127.90
2017-12-01T02:54:18.478Z,152.30
2017-12-01T02:56:45.916Z,125.80
2017-12-01T02:59:13.348Z,106.03
2017-12-01T03:01:41.540Z,143.10
2017-12-01T03:04:09.877Z,138.53
2017-12-01T03:06:37.403Z,128.83
2017-12-01T03:09:04.872Z,122.97
2017-12-01T03:11:32.321Z,122.00
2017-12-01T03:13:59.799Z,120.47
2017-12-01T03:16:27.213Z,122.07
2017-12-01T03:18:54.652Z,120.43
2017-12-01T03:21:22.850Z,122.90
2017-12-01T03:23:50.326Z,129.50
2017-12-01T03:26:17.816Z,111.03
2017-12-01T03:28:45.352Z,124.97
2017-12-01T03:31:12.797Z,111.03
2017-12-01T03:33:40.248Z,120.27
2017-12-01T03:36:07.714Z,105.27
2017-12-01T03:38:35.173Z,117.70
2017-12-01T03:41:02.615Z,114.37
2017-12-01T03:43:30.092Z,115.00
2017-12-01T03:45:57.580Z,125.17
2017-12-01T03:48:25.023Z,115.83
2017-12-01T03:50:52.566Z,114.13
2017-12-01T03:53:19.988Z,101.23
2017-12-01T03:55:47.429Z,105.67
2017-12-01T03:58:15.664Z,108.37
2017-12-01T04:00:43.095Z,102.63
2017-12-01T04:03:10.560Z,101.27
2017-12-01T04:05:37.993Z,89.87
2017-12-01T04:08:05.417Z,87.97
2017-12-01T04:10:32.929Z,93.23
2017-12-01T04:13:00.369Z,100.57
2017-12-01T04:15:27.844Z,102.60
2017-12-01T04:17:55.281Z,94.67
2017-12-01T04:20:22.706Z,87.70
2017-12-01T04:22:50.133Z,88.37
2017-12-01T04:25:17.601Z,96.80
2017-12-01T04:27:45.034Z,101.47
2017-12-01T04:30:12.464Z,88.80
2017-12-01T04:32:39.901Z,98.90
2017-12-01T04:35:08.096Z,99.57
2017-12-01T04:37:35.584Z,96.47
2017-12-01T04:40:03.132Z,91.13
2017-12-01T04:42:30.573Z,95.03
2017-12-01T04:44:58.049Z,84.40
2017-12-01T04:47:25.504Z,90.60
2017-12-01T04:49:52.932Z,83.07
2017-12-01T04:52:20.356Z,75.33
2017-12-01T04:54:47.796Z,80.07
2017-12-01T04:57:15.221Z,68.70
2017-12-01T04:59:42.648Z,86.73
2017-12-01T05:02:10.855Z,81.23
2017-12-01T05:04:38.336Z,80.43
2017-12-01T05:07:05.777Z,70.13
2017-12-01T05:09:33.213Z,69.40
2017-12-01T05:12:00.699Z,74.47
2017-12-01T05:14:28.163Z,71.50
2017-12-01T05:16:56.413Z,81.57
2017-12-01T05:19:23.868Z,86.57
2017-12-01T05:21:51.328Z,84.83
2017-12-01T05:24:18.765Z,87.80
2017-12-01T05:26:46.248Z,94.53
2017-12-01T05:29:13.722Z,90.43
2017-12-01T05:31:41.261Z,99.00
2017-12-01T05:34:08.697Z,95.93
2017-12-01T05:36:36.120Z,101.17
2017-12-01T05:39:03.633Z,115.23
2017-12-01T05:41:31.073Z,113.53
2017-12-01T05:43:58.512Z,128.00
2017-12-01T05:46:26.708Z,143.23
2017-12-01T05:48:54.136Z,147.53
2017-12-01T05:51:22.352Z,141.50
2017-12-01T05:53:49.797Z,139.40
2017-12-01T05:56:17.315Z,166.47
2017-12-01T05:58:44.833Z,139.83
2017-12-01T06:01:12.277Z,146.63
2017-12-01T06:03:39.741Z,154.23
2017-12-01T06:06:07.165Z,151.50
2017-12-01T06:08:34.659Z,155.23
2017-12-01T06:11:02.089Z,155.07
2017-12-01T06:13:29.570Z,143.20
2017-12-01T06:15:57.033Z,148.97
2017-12-01T06:18:24.484Z,141.80
2017-12-01T06:20:51.917Z,156.13
2017-12-01T06:23:19.385Z,169.73
2017-12-01T06:25:46.812Z,173.60
2017-12-01T06:28:14.244Z,178.40
2017-12-01T06:30:42.536Z,144.13
2017-12-01T06:33:10.749Z,170.20
2017-12-01T06:35:38.185Z,183.30
2017-12-01T06:38:05.636Z,220.17
2017-12-01T06:40:33.120Z,236.63
2017-12-01T06:43:00.550Z,234.13
2017-12-01T06:45:27.998Z,340.57
2017-12-01T06:47:56.199Z,396.27
2017-12-01T06:50:23.634Z,383.87
2017-12-01T06:52:51.071Z,352.03
2017-12-01T06:55:19.289Z,334.70
2017-12-01T06:57:46.718Z,369.97
2017-12-01T07:00:14.212Z,327.83
2017-12-01T07:02:41.649Z,329.97
2017-12-01T07:05:09.073Z,335.00
2017-12-01T07:07:37.305Z,282.70
2017-12-01T07:10:04.761Z,275.30
2017-12-01T07:12:32.203Z,236.93
2017-12-01T07:14:59.644Z,293.10
2017-12-01T07:17:27.073Z,289.43
2017-12-01T07:19:55.276Z,264.03
2017-12-01T07:22:22.756Z,265.80
2017-12-01T07:24:50.220Z,260.37
2017-12-01T07:27:17.767Z,248.63
2017-12-01T07:29:45.188Z,237.10
2017-12-01T07:32:13.411Z,266.33
2017-12-01T07:34:40.865Z,247.27
2017-12-01T07:37:08.308Z,232.83
2017-12-01T07:39:35.736Z,217.73
2017-12-01T07:42:03.937Z,231.30
2017-12-01T07:44:37.832Z,223.00
2017-12-01T07:47:05.269Z,208.27
2017-12-01T07:49:33.462Z,235.33
2017-12-01T07:52:00.909Z,215.60
2017-12-01T07:54:29.104Z,213.63
2017-12-01T07:56:56.535Z,233.03
2017-12-01T07:59:24.745Z,215.93
2017-12-01T08:01:52.177Z,233.57
2017-12-01T08:04:19.644Z,211.03
2017-12-01T08:06:47.831Z,230.70
2017-12-01T08:09:15.261Z,228.27
2017-12-01T08:11:42.694Z,276.07
2017-12-01T08:14:10.120Z,195.37
2017-12-01T08:16:49.464Z,269.13
2017-12-01T08:19:20.761Z,280.67
2017-12-01T08:22:00.223Z,314.83
2017-12-01T08:24:39.497Z,339.30
2017-12-01T08:27:06.933Z,399.90
2017-12-01T08:29:34.370Z,301.77
2017-12-01T08:32:01.817Z,405.00
2017-12-01T08:34:29.288Z,383.63
2017-12-01T08:36:56.720Z,379.17
2017-12-01T08:39:24.153Z,375.00
2017-12-01T08:41:51.594Z,363.33
2017-12-01T08:44:19.801Z,441.43
2017-12-01T08:46:47.259Z,376.80
2017-12-01T08:49:14.716Z,346.90
2017-12-01T08:51:42.145Z,335.20
2017-12-01T08:54:09.615Z,389.33
2017-12-01T08:56:37.110Z,300.50
2017-12-01T08:59:04.545Z,275.83
2017-12-01T09:01:31.991Z,266.07
2017-12-01T09:03:59.441Z,270.47
2017-12-01T09:06:26.918Z,251.37
2017-12-01T09:08:54.348Z,230.20
2017-12-01T09:11:21.784Z,210.00
2017-12-01T09:13:49.977Z,201.10
2017-12-01T09:16:17.455Z,185.13
2017-12-01T09:18:44.912Z,201.67
2017-12-01T09:21:12.350Z,169.27
2017-12-01T09:23:39.793Z,174.20
2017-12-01T09:26:08.004Z,166.63
2017-12-01T09:28:35.420Z,151.43
2017-12-01T09:31:03.636Z,138.70
2017-12-01T09:33:31.074Z,152.73
2017-12-01T09:35:58.496Z,127.00
2017-12-01T09:38:25.946Z,161.63
2017-12-01T09:40:53.372Z,152.80
2017-12-01T09:43:20.820Z,135.17
2017-12-01T09:45:48.281Z,127.83
2017-12-01T09:48:15.712Z,142.53
2017-12-01T09:50:43.144Z,131.20
2017-12-01T09:53:11.355Z,128.60
2017-12-01T09:55:38.825Z,116.73
2017-12-01T09:58:06.277Z,109.13
2017-12-01T10:00:33.717Z,102.17
2017-12-01T10:03:01.193Z,99.83
2017-12-01T10:05:28.620Z,100.70
2017-12-01T10:07:56.113Z,104.67
2017-12-01T10:10:23.562Z,95.37
2017-12-01T10:12:50.989Z,93.63
2017-12-01T10:15:19.193Z,102.17
2017-12-01T10:17:46.621Z,96.43
2017-12-01T10:20:14.129Z,99.07
2017-12-01T10:22:41.557Z,91.67
2017-12-01T10:25:09.021Z,95.07
2017-12-01T10:27:36.444Z,86.93
2017-12-01T10:30:04.652Z,91.67
2017-12-01T10:32:32.115Z,91.10
2017-12-01T10:34:59.537Z,81.80
2017-12-01T10:37:26.973Z,83.13
2017-12-01T10:39:55.162Z,90.50
2017-12-01T10:42:23.352Z,96.17
2017-12-01T10:44:50.832Z,83.53
2017-12-01T10:47:18.256Z,87.30
2017-12-01T10:49:46.461Z,88.07
2017-12-01T10:52:13.916Z,83.63
2017-12-01T10:54:41.379Z,79.10
2017-12-01T10:57:08.833Z,91.67
2017-12-01T10:59:36.291Z,95.17
2017-12-01T11:02:03.729Z,93.13
2017-12-01T11:04:31.149Z,99.33
2017-12-01T11:06:58.675Z,90.17
2017-12-01T11:09:26.106Z,83.93
2017-12-01T11:11:53.545Z,91.07
2017-12-01T11:14:21.795Z,82.03
2017-12-01T11:16:49.308Z,86.67
2017-12-01T11:19:16.742Z,89.57
2017-12-01T11:21:44.189Z,86.63
2017-12-01T11:24:12.397Z,74.63
2017-12-01T11:26:39.829Z,80.70
2017-12-01T11:29:07.273Z,76.80
2017-12-01T11:31:35.491Z,74.23
2017-12-01T11:34:02.925Z,79.47
2017-12-01T11:36:30.377Z,79.20
2017-12-01T11:38:57.813Z,78.53
2017-12-01T11:41:26.029Z,81.50
2017-12-01T11:43:53.529Z,71.60
2017-12-01T11:46:21.078Z,75.47
2017-12-01T11:48:48.567Z,76.60
2017-12-01T11:51:16.883Z,70.57
2017-12-01T11:53:44.317Z,68.40
2017-12-01T11:56:11.749Z,76.27
2017-12-01T11:58:39.952Z,84.70
2017-12-01T12:01:07.401Z,82.03
2017-12-01T12:03:34.889Z,73.93
2017-12-01T12:06:02.349Z,76.13
2017-12-01T12:08:29.808Z,71.70
2017-12-01T12:10:57.238Z,63.30
2017-12-01T12:13:24.685Z,74.60
2017-12-01T12:15:52.117Z,72.00
2017-12-01T12:18:19.537Z,66.43
2017-12-01T12:20:47.744Z,57.83
2017-12-01T12:23:15.165Z,63.53
2017-12-01T12:25:43.361Z,62.60
2017-12-01T12:28:10.809Z,72.87
2017-12-01T12:30:39.017Z,67.57
2017-12-01T12:33:06.477Z,67.63
2017-12-01T12:35:33.960Z,68.17
2017-12-01T12:38:01.393Z,64.93
2017-12-01T12:40:28.828Z,68.73
2017-12-01T12:42:56.285Z,66.60
2017-12-01T12:45:23.709Z,69.23
2017-12-01T12:47:51.922Z,60.53
2017-12-01T12:50:19.390Z,83.50
2017-12-01T12:52:46.797Z,74.50
2017-12-01T12:55:14.988Z,71.90
2017-12-01T12:57:42.424Z,71.53
2017-12-01T13:00:10.616Z,78.97
2017-12-01T13:02:38.045Z,71.07
2017-12-01T13:05:06.260Z,66.43
2017-12-01T13:07:33.734Z,92.17
2017-12-01T13:10:01.173Z,91.20
2017-12-01T13:12:28.605Z,75.20
2017-12-01T13:14:56.797Z,84.67
2017-12-01T13:17:24.221Z,75.20
2017-12-01T13:19:52.420Z,71.87
2017-12-01T13:22:19.850Z,76.53
2017-12-01T13:24:48.054Z,73.67
2017-12-01T13:27:15.533Z,73.07
2017-12-01T13:29:42.961Z,71.00
2017-12-01T13:32:10.386Z,73.90
2017-12-01T13:34:37.901Z,78.43
2017-12-01T13:37:05.359Z,71.43
2017-12-01T13:39:32.785Z,70.73
2017-12-01T13:42:00.231Z,79.40
2017-12-01T13:44:28.425Z,77.07
2017-12-01T13:46:55.849Z,75.03
2017-12-01T13:49:23.372Z,81.03
2017-12-01T13:51:50.889Z,79.07
2017-12-01T13:54:18.313Z,78.63
2017-12-01T13:56:45.836Z,73.03
2017-12-01T13:59:19.105Z,81.53
2017-12-01T14:01:46.537Z,95.03
2017-12-01T14:04:14.781Z,77.30
2017-12-01T14:06:42.220Z,83.40
2017-12-01T14:09:09.669Z,74.47
2017-12-01T14:11:37.089Z,77.53
2017-12-01T14:14:05.304Z,89.40
2017-12-01T14:16:32.748Z,82.57
2017-12-01T14:19:00.221Z,91.80
2017-12-01T14:21:27.667Z,107.53
2017-12-01T14:23:55.137Z,84.37
2017-12-01T14:26:22.565Z,81.97
2017-12-01T14:28:49.995Z,77.97
2017-12-01T14:31:17.639Z,83.27
2017-12-01T14:33:45.861Z,88.00
2017-12-01T14:36:13.341Z,77.87
2017-12-01T14:38:42.189Z,75.23
2017-12-01T14:41:10.423Z,80.70
2017-12-01T14:43:37.865Z,71.77
2017-12-01T14:46:05.321Z,66.80
2017-12-01T14:48:32.776Z,74.80
2017-12-01T14:51:00.213Z,79.50
2017-12-01T14:53:27.648Z,83.63
2017-12-01T14:55:55.865Z,72.40
2017-12-01T14:58:23.320Z,77.80
2017-12-01T15:00:50.761Z,80.57
2017-12-01T15:03:18.223Z,74.37
2017-12-01T15:05:45.649Z,80.93
2017-12-01T15:08:13.871Z,79.07
2017-12-01T15:10:41.340Z,91.63
2017-12-01T15:13:08.761Z,77.83
2017-12-01T15:15:36.241Z,86.33
2017-12-01T15:18:03.674Z,103.20
2017-12-01T15:20:31.105Z,97.83
2017-12-01T15:22:59.317Z,95.13
2017-12-01T15:25:26.745Z,102.57
2017-12-01T15:27:54.951Z,109.53
2017-12-01T15:30:22.421Z,104.30
2017-12-01T15:32:49.848Z,109.77
2017-12-01T15:35:17.281Z,115.80
2017-12-01T15:37:45.495Z,105.57
2017-12-01T15:40:12.920Z,107.83
2017-12-01T15:42:41.113Z,113.80
2017-12-01T15:45:08.597Z,125.50
2017-12-01T15:47:36.029Z,129.90
2017-12-01T15:50:03.461Z,124.97
2017-12-01T15:52:31.673Z,143.63
2017-12-01T15:54:59.097Z,131.03
2017-12-01T15:57:27.308Z,119.43
2017-12-01T15:59:54.749Z,113.23
2017-12-01T16:02:22.183Z,111.97
2017-12-01T16:04:50.381Z,111.37
2017-12-01T16:07:17.867Z,135.87
2017-12-01T16:09:46.065Z,142.97
2017-12-01T16:12:13.493Z,125.40
2017-12-01T16:14:41.725Z,125.93
2017-12-01T16:17:09.165Z,122.73
2017-12-01T16:19:36.630Z,123.67
2017-12-01T16:22:04.061Z,136.37
2017-12-01T16:24:31.489Z,126.77
2017-12-01T16:26:59.693Z,131.63
2017-12-01T16:29:27.137Z,128.37
2017-12-01T16:31:55.350Z,122.03
2017-12-01T16:34:22.809Z,122.07
2017-12-01T16:36:50.364Z,128.73
2017-12-01T16:39:17.820Z,139.20
2017-12-01T16:41:45.256Z,146.37
2017-12-01T16:44:12.737Z,143.10
2017-12-01T16:46:40.205Z,123.50
2017-12-01T16:49:07.645Z,131.03
2017-12-01T16:51:35.093Z,141.73
2017-12-01T16:54:02.625Z,121.70
2017-12-01T16:56:30.057Z,148.97
2017-12-01T16:58:57.517Z,125.47
2017-12-01T17:01:24.954Z,131.07
2017-12-01T17:03:53.145Z,131.10
2017-12-01T17:06:20.593Z,108.47
2017-12-01T17:08:48.033Z,114.87
2017-12-01T17:11:16.265Z,128.60
2017-12-01T17:13:43.817Z,121.07
2017-12-01T17:16:11.249Z,126.43
2017-12-01T17:18:38.729Z,116.53
2017-12-01T17:21:06.182Z,120.17
2017-12-01T17:23:33.649Z,135.17
2017-12-01T17:26:01.094Z,124.87
2017-12-01T17:28:28.585Z,126.83
2017-12-01T17:30:56.037Z,125.20
2017-12-01T17:33:23.483Z,138.30
2017-12-01T17:35:51.042Z,136.93
2017-12-01T17:38:18.499Z,142.50
2017-12-01T17:40:45.950Z,136.70
2017-12-01T17:43:13.402Z,137.23
2017-12-01T17:45:40.838Z,134.07
2017-12-01T17:48:08.297Z,133.07
2017-12-01T17:50:35.754Z,139.40
2017-12-01T17:53:03.203Z,140.67
2017-12-01T17:55:30.645Z,138.63
2017-12-01T17:57:58.975Z,129.00
2017-12-01T18:00:26.438Z,140.37
2017-12-01T18:02:53.877Z,134.13
2017-12-01T18:05:21.326Z,140.53
2017-12-01T18:07:48.771Z,127.33
2017-12-01T18:10:16.212Z,128.37
2017-12-01T18:12:44.550Z,116.33
2017-12-01T18:15:12.012Z,125.97
2017-12-01T18:17:39.566Z,146.80
2017-12-01T18:20:07.034Z,148.60
2017-12-01T18:22:34.471Z,140.53
2017-12-01T18:25:01.925Z,132.93
2017-12-01T18:27:29.476Z,121.90
2017-12-01T18:29:56.977Z,134.67
2017-12-01T18:32:25.217Z,136.10
2017-12-01T18:34:52.661Z,128.97
2017-12-01T18:37:20.080Z,144.73
2017-12-01T18:39:48.281Z,137.53
2017-12-01T18:42:15.738Z,125.57
2017-12-01T18:44:43.169Z,145.10
2017-12-01T18:47:11.369Z,160.10
2017-12-01T18:49:38.828Z,126.30
2017-12-01T18:52:06.263Z,149.30
2017-12-01T18:54:34.462Z,154.80
2017-12-01T18:57:01.915Z,145.73
2017-12-01T18:59:29.353Z,131.80
2017-12-01T19:01:56.793Z,146.83
2017-12-01T19:04:25.009Z,133.90
2017-12-01T19:06:52.448Z,149.47
2017-12-01T19:09:19.940Z,142.53
2017-12-01T19:11:48.101Z,176.30
2017-12-01T19:14:15.537Z,160.30
2017-12-01T19:16:42.977Z,131.07
2017-12-01T19:19:11.297Z,146.50
2017-12-01T19:21:38.728Z,128.50
2017-12-01T19:24:06.166Z,143.83
2017-12-01T19:26:34.380Z,129.77
2017-12-01T19:29:01.809Z,142.50
2017-12-01T19:31:29.300Z,128.57
2017-12-01T19:33:56.746Z,127.70
2017-12-01T19:36:24.213Z,139.97
2017-12-01T19:38:51.649Z,378.43
2017-12-01T19:41:19.101Z,237.80
2017-12-01T19:43:46.537Z,231.57
2017-12-01T19:46:14.761Z,204.67
2017-12-01T19:48:42.205Z,170.60
2017-12-01T19:51:09.638Z,155.53
2017-12-01T19:53:37.817Z,155.57
2017-12-01T19:56:05.265Z,166.67
2017-12-01T19:58:33.467Z,152.30
2017-12-01T20:01:00.941Z,167.70
2017-12-01T20:03:28.498Z,153.60
2017-12-01T20:05:55.925Z,143.10
2017-12-01T20:08:23.360Z,130.37
2017-12-01T20:10:50.817Z,152.23
2017-12-01T20:13:18.305Z,168.47
2017-12-01T20:15:45.744Z,244.10
2017-12-01T20:18:13.209Z,230.83
2017-12-01T20:20:40.664Z,170.97
2017-12-01T20:23:08.135Z,133.00
2017-12-01T20:25:35.581Z,144.23
2017-12-01T20:28:03.016Z,143.50
2017-12-01T20:30:30.496Z,148.57
2017-12-01T20:32:57.949Z,131.60
2017-12-01T20:35:25.381Z,143.53
2017-12-01T20:37:52.813Z,128.10
2017-12-01T20:40:21.134Z,113.33
2017-12-01T20:42:48.600Z,108.93
2017-12-01T20:45:16.066Z,110.37
2017-12-01T20:47:43.625Z,120.47
2017-12-01T20:50:12.101Z,138.40
2017-12-01T20:52:39.529Z,155.73
2017-12-01T20:55:06.972Z,137.77
2017-12-01T20:57:35.170Z,189.53
2017-12-01T21:00:02.630Z,200.17
2017-12-01T21:02:30.125Z,270.00
2017-12-01T21:04:57.542Z,308.00
2017-12-01T21:07:25.007Z,506.20
2017-12-01T21:09:52.429Z,373.47
2017-12-01T21:12:20.655Z,503.07
2017-12-01T21:14:48.097Z,522.90
2017-12-01T21:17:15.545Z,403.67
2017-12-01T21:19:42.989Z,785.13
2017-12-01T21:22:10.428Z,775.23
2017-12-01T21:24:38.639Z,440.60
2017-12-01T21:27:06.069Z,617.40
2017-12-01T21:29:34.268Z,624.93
2017-12-01T21:32:01.724Z,754.43
2017-12-01T21:34:29.149Z,406.00
2017-12-01T21:36:57.345Z,564.80
2017-12-01T21:39:24.814Z,728.90
2017-12-01T21:41:52.282Z,692.70
2017-12-01T21:44:19.717Z,495.93
2017-12-01T21:46:47.194Z,374.57
2017-12-01T21:49:14.653Z,886.83
2017-12-01T21:51:42.089Z,599.57
2017-12-01T21:54:09.565Z,515.87
2017-12-01T21:56:37.103Z,773.53
2017-12-01T21:59:04.552Z,408.17
2017-12-01T22:01:31.992Z,362.93
2017-12-01T22:04:00.225Z,408.73
2017-12-01T22:06:27.662Z,573.23
2017-12-01T22:08:55.106Z,431.83
2017-12-01T22:11:22.589Z,569.47
2017-12-01T22:13:50.021Z,553.93
2017-12-01T22:16:17.478Z,591.53
2017-12-01T22:18:45.666Z,691.03
2017-12-01T22:21:13.110Z,659.67
2017-12-01T22:23:40.541Z,710.10
2017-12-01T22:26:07.988Z,737.77
2017-12-01T22:28:35.421Z,494.40
2017-12-01T22:31:02.869Z,570.17
2017-12-01T22:33:30.298Z,830.60
2017-12-01T22:35:57.741Z,597.50
2017-12-01T22:38:25.186Z,891.87
2017-12-01T22:40:52.629Z,755.03
2017-12-01T22:43:20.092Z,617.97
2017-12-01T22:45:47.541Z,545.27
2017-12-01T22:48:14.975Z,663.07
2017-12-01T22:50:42.404Z,644.33
2017-12-01T22:53:10.623Z,682.10
2017-12-01T22:55:38.044Z,681.73
2017-12-01T22:58:06.241Z,478.57
2017-12-01T23:00:33.713Z,687.03
2017-12-01T23:03:01.185Z,606.47
2017-12-01T23:05:28.629Z,712.67
2017-12-01T23:07:56.068Z,577.57
2017-12-01T23:10:23.504Z,468.27
2017-12-01T23:12:50.933Z,506.73
2017-12-01T23:15:19.142Z,411.23
2017-12-01T23:17:46.573Z,396.37
2017-12-01T23:20:14.789Z,606.70
2017-12-01T23:22:42.237Z,548.70
2017-12-01T23:25:09.697Z,617.67
2017-12-01T23:27:37.165Z,545.13
2017-12-01T23:30:04.616Z,699.33
2017-12-01T23:32:32.058Z,658.83
2017-12-01T23:34:59.501Z,417.50
2017-12-01T23:37:26.938Z,429.17
2017-12-01T23:39:55.137Z,635.77
2017-12-01T23:42:22.617Z,713.57
2017-12-01T23:44:50.104Z,457.73
2017-12-01T23:47:17.529Z,423.63
2017-12-01T23:49:44.984Z,554.53
2017-12-01T23:52:12.446Z,551.80
2017-12-01T23:54:39.872Z,471.47
2017-12-01T23:57:07.304Z,418.53
2017-12-01T23:59:35.512Z,649.53
